createdAt,value
2022-08-14T00:01:02.047Z,94065.25
2022-08-14T00:03:37.631Z,94073.06
2022-08-14T00:06:13.938Z,94068.38
2022-08-14T00:08:52.146Z,94061.84
2022-08-14T00:11:19.730Z,94054.16
2022-08-14T00:13:52.406Z,94046.16
2022-08-14T00:16:41.732Z,94049.13
2022-08-14T00:19:19.792Z,94045.03
2022-08-14T00:21:50.902Z,94039.78
2022-08-14T00:24:28.139Z,94034.94
2022-08-14T00:27:02.165Z,94031.94
2022-08-14T00:29:32.995Z,94024.97
2022-08-14T00:32:52.811Z,94028.03
2022-08-14T00:34:53.640Z,94023.25
2022-08-14T00:37:20.772Z,94018.53
2022-08-14T00:39:47.545Z,94024.66
2022-08-14T00:42:52.653Z,94017.25
2022-08-14T00:45:11.432Z,94012.31
2022-08-14T00:47:43.216Z,94012.16
2022-08-14T00:50:17.716Z,94002.34
2022-08-14T00:52:50.851Z,93998.69
2022-08-14T00:55:20.006Z,94000.28
2022-08-14T00:58:08.057Z,93998.59
2022-08-14T01:00:43.044Z,93997.25
2022-08-14T01:03:20.073Z,93989.13
2022-08-14T01:05:51.875Z,93983.34
2022-08-14T01:08:51.317Z,93977.66
2022-08-14T01:11:13.497Z,93974.50
2022-08-14T01:13:50.757Z,93970.88
2022-08-14T01:16:28.012Z,93968.75
2022-08-14T01:19:15.904Z,93964.00
2022-08-14T01:21:47.139Z,93960.00
2022-08-14T01:24:28.882Z,93966.72
2022-08-14T01:27:00.134Z,93967.13
2022-08-14T01:29:58.885Z,93966.75
2022-08-14T01:32:22.918Z,93968.50
2022-08-14T01:35:20.998Z,93964.88
2022-08-14T01:37:44.754Z,93956.31
2022-08-14T01:40:15.374Z,93959.81
2022-08-14T01:42:46.504Z,93956.53
2022-08-14T01:45:17.907Z,93955.84
2022-08-14T01:47:52.354Z,93963.66
2022-08-14T01:50:30.813Z,93965.56
2022-08-14T01:53:01.448Z,93964.94
2022-08-14T01:55:32.342Z,93957.38
2022-08-14T01:58:01.543Z,93947.97
2022-08-14T02:00:47.838Z,93946.25
2022-08-14T02:03:16.031Z,93936.59
2022-08-14T02:05:42.617Z,93940.91
2022-08-14T02:08:10.601Z,93948.94
2022-08-14T02:10:46.215Z,93942.72
2022-08-14T02:13:16.237Z,93944.03
2022-08-14T02:15:44.085Z,93930.25
2022-08-14T02:18:11.862Z,93936.25
2022-08-14T02:20:42.327Z,93945.16
2022-08-14T02:23:09.396Z,93932.56
2022-08-14T02:25:38.601Z,93929.19
2022-08-14T02:28:25.730Z,93929.50
2022-08-14T02:30:53.056Z,93930.72
2022-08-14T02:33:21.251Z,93929.41
2022-08-14T02:35:53.492Z,93940.78
2022-08-14T02:38:34.974Z,93918.69
2022-08-14T02:41:01.922Z,93923.28
2022-08-14T02:43:36.944Z,93915.41
2022-08-14T02:46:06.218Z,93905.97
2022-08-14T02:49:03.721Z,93889.88
2022-08-14T02:51:26.561Z,93886.38
2022-08-14T02:53:58.462Z,93887.22
2022-08-14T02:57:13.542Z,93886.56
2022-08-14T02:59:15.978Z,93889.72
2022-08-14T03:01:50.554Z,93895.66
2022-08-14T03:04:20.590Z,93885.38
2022-08-14T03:07:06.024Z,93891.06
2022-08-14T03:09:42.151Z,93887.34
2022-08-14T03:12:30.709Z,93875.41
2022-08-14T03:15:02.757Z,93889.31
2022-08-14T03:17:32.002Z,93884.09
2022-08-14T03:20:11.878Z,93879.72
2022-08-14T03:22:42.229Z,93883.75
2022-08-14T03:25:10.815Z,93873.69
2022-08-14T03:27:48.188Z,93877.75
2022-08-14T03:30:24.830Z,93868.00
2022-08-14T03:33:08.125Z,93856.06
2022-08-14T03:35:39.928Z,93860.25
2022-08-14T03:39:14.094Z,93858.47
2022-08-14T03:40:59.489Z,93854.53
2022-08-14T03:43:28.489Z,93850.16
2022-08-14T03:46:00.419Z,93854.88
2022-08-14T03:48:31.142Z,93862.66
2022-08-14T03:50:59.681Z,93853.78
2022-08-14T03:53:28.191Z,93848.44
2022-08-14T03:55:58.938Z,93838.38
2022-08-14T03:58:36.189Z,93828.72
2022-08-14T04:01:03.462Z,93840.22
2022-08-14T04:03:33.363Z,93833.53
2022-08-14T04:06:04.880Z,93835.94
2022-08-14T04:08:37.036Z,93835.19
2022-08-14T04:11:07.931Z,93830.03
2022-08-14T04:13:41.065Z,93830.47
2022-08-14T04:16:12.640Z,93826.97
2022-08-14T04:18:46.308Z,93822.84
2022-08-14T04:21:16.135Z,93825.88
2022-08-14T04:23:44.358Z,93816.28
2022-08-14T04:26:14.388Z,93816.69
2022-08-14T04:29:07.129Z,93813.09
2022-08-14T04:33:10.697Z,93819.09
2022-08-14T04:34:24.240Z,93817.81
2022-08-14T04:37:12.791Z,93816.69
2022-08-14T04:39:58.867Z,93806.31
2022-08-14T04:42:47.526Z,93811.69
2022-08-14T04:45:20.945Z,93816.28
2022-08-14T04:48:06.175Z,93820.19
2022-08-14T04:50:44.594Z,93821.06
2022-08-14T04:53:15.096Z,93816.47
2022-08-14T04:55:45.084Z,93817.34
2022-08-14T04:58:21.511Z,93825.63
2022-08-14T05:00:59.411Z,93820.38
2022-08-14T05:03:31.925Z,93817.88
2022-08-14T05:06:01.672Z,93825.63
2022-08-14T05:08:57.095Z,93823.19
2022-08-14T05:11:19.388Z,93823.97
2022-08-14T05:14:16.890Z,93824.00
2022-08-14T05:16:33.470Z,93822.59
2022-08-14T05:19:18.973Z,93824.47
2022-08-14T05:22:00.192Z,93815.22
2022-08-14T05:24:28.923Z,93822.44
2022-08-14T05:26:56.098Z,93823.66
2022-08-14T05:29:23.307Z,93824.09
2022-08-14T05:31:50.541Z,93818.16
2022-08-14T05:34:23.721Z,93830.31
2022-08-14T05:37:01.998Z,93836.03
2022-08-14T05:39:30.192Z,93834.22
2022-08-14T05:41:58.222Z,93829.75
2022-08-14T05:44:29.683Z,93828.50
2022-08-14T05:46:57.407Z,93830.72
2022-08-14T05:49:33.358Z,93832.81
2022-08-14T05:52:02.502Z,93839.44
2022-08-14T05:54:35.612Z,93845.63
2022-08-14T05:57:04.714Z,93846.56
2022-08-14T05:59:39.410Z,93846.34
2022-08-14T06:02:10.538Z,93844.97
2022-08-14T06:04:38.810Z,93844.69
2022-08-14T06:07:06.351Z,93836.44
2022-08-14T06:09:35.679Z,93833.84
2022-08-14T06:12:11.903Z,93829.38
2022-08-14T06:14:39.439Z,93824.56
2022-08-14T06:17:07.089Z,93829.50
2022-08-14T06:19:33.771Z,93823.09
2022-08-14T06:22:00.364Z,93820.16
2022-08-14T06:24:30.621Z,93821.00
2022-08-14T06:27:04.562Z,93827.84
2022-08-14T06:29:35.023Z,93822.72
2022-08-14T06:32:38.305Z,93813.00
2022-08-14T06:35:03.922Z,93816.81
2022-08-14T06:37:47.785Z,93812.66
2022-08-14T06:40:26.215Z,93811.66
2022-08-14T06:43:00.366Z,93803.72
2022-08-14T06:45:31.276Z,93798.94
2022-08-14T06:47:58.840Z,93792.66
2022-08-14T06:50:30.038Z,93789.47
2022-08-14T06:52:57.383Z,93779.34
2022-08-14T06:55:28.293Z,93779.06
2022-08-14T06:57:57.657Z,93783.31
2022-08-14T07:00:31.138Z,93783.03
2022-08-14T07:03:17.890Z,93780.13
2022-08-14T07:05:55.382Z,93772.34
2022-08-14T07:08:29.799Z,93778.47
2022-08-14T07:11:01.570Z,93773.25
2022-08-14T07:13:30.668Z,93770.22
2022-08-14T07:15:58.808Z,93765.03
2022-08-14T07:18:30.758Z,93766.25
2022-08-14T07:21:00.219Z,93762.53
2022-08-14T07:23:27.317Z,93760.69
2022-08-14T07:25:56.645Z,93766.13
2022-08-14T07:28:26.567Z,93771.88
2022-08-14T07:31:05.259Z,93761.31
2022-08-14T07:33:50.615Z,93761.38
2022-08-14T07:36:26.942Z,93762.97
2022-08-14T07:38:58.613Z,93767.53
2022-08-14T07:41:25.389Z,93764.59
2022-08-14T07:44:29.460Z,93764.63
2022-08-14T07:46:48.113Z,93764.22
2022-08-14T07:49:17.664Z,93768.38
2022-08-14T07:51:45.373Z,93761.56
2022-08-14T07:54:12.445Z,93765.00
2022-08-14T07:56:46.832Z,93761.22
2022-08-14T07:59:18.129Z,93763.13
2022-08-14T08:01:47.935Z,93752.56
2022-08-14T08:04:24.472Z,93758.69
2022-08-14T08:06:52.999Z,93751.91
2022-08-14T08:09:24.615Z,93753.09
2022-08-14T08:12:01.679Z,93752.00
2022-08-14T08:14:55.642Z,93763.44
2022-08-14T08:17:23.543Z,93758.91
2022-08-14T08:19:51.843Z,93767.28
2022-08-14T08:22:21.366Z,93778.72
2022-08-14T08:24:50.299Z,93776.47
2022-08-14T08:27:19.895Z,93782.16
2022-08-14T08:29:51.134Z,93786.34
2022-08-14T08:32:18.315Z,93773.88
2022-08-14T08:34:46.425Z,93775.78
2022-08-14T08:37:14.306Z,93784.13
2022-08-14T08:40:01.999Z,93781.09
2022-08-14T08:42:41.196Z,93776.13
2022-08-14T08:45:17.225Z,93775.75
2022-08-14T08:47:44.283Z,93775.72
2022-08-14T08:53:23.834Z,93781.75
2022-08-14T08:55:50.596Z,93777.97
2022-08-14T08:58:25.372Z,93760.81
2022-08-14T09:00:55.013Z,93767.25
2022-08-14T09:03:27.512Z,93766.06
2022-08-14T09:05:56.220Z,93770.25
2022-08-14T09:08:31.610Z,93774.72
2022-08-14T09:11:19.379Z,93757.09
2022-08-14T09:13:53.061Z,93760.03
2022-08-14T09:16:21.976Z,93749.28
2022-08-14T09:18:50.587Z,93755.31
2022-08-14T09:21:24.387Z,93753.31
2022-08-14T09:24:29.194Z,93740.22
2022-08-14T09:26:43.122Z,93735.13
2022-08-14T09:29:11.575Z,93732.75
2022-08-14T09:31:53.389Z,93744.13
2022-08-14T09:34:27.247Z,93731.44
2022-08-14T09:37:10.147Z,93734.69
2022-08-14T09:39:55.268Z,93733.00
2022-08-14T09:42:45.145Z,93724.09
2022-08-14T09:45:18.098Z,93727.84
2022-08-14T09:47:44.759Z,93722.78
2022-08-14T09:50:21.106Z,93721.09
2022-08-14T09:52:59.612Z,93732.03
2022-08-14T09:55:28.047Z,93712.16
2022-08-14T09:58:19.203Z,93717.75
2022-08-14T10:01:00.603Z,93722.66
2022-08-14T10:03:34.640Z,93719.88
2022-08-14T10:06:19.942Z,93729.75
2022-08-14T10:08:59.743Z,93726.63
2022-08-14T10:11:35.174Z,93712.66
2022-08-14T10:14:34.698Z,93703.28
2022-08-14T10:17:06.417Z,93702.69
2022-08-14T10:19:35.668Z,93708.28
2022-08-14T10:23:14.422Z,93720.44
2022-08-14T10:24:54.781Z,93704.94
2022-08-14T10:27:26.640Z,93707.09
2022-08-14T10:30:01.612Z,93695.91
2022-08-14T10:32:42.059Z,93693.13
2022-08-14T10:35:16.721Z,93686.22
2022-08-14T10:37:49.926Z,93685.16
2022-08-14T10:40:38.137Z,93681.00
2022-08-14T10:43:23.010Z,93672.34
2022-08-14T10:46:58.964Z,93663.44
2022-08-14T10:49:02.404Z,93656.75
2022-08-14T10:51:34.348Z,93663.97
2022-08-14T10:54:25.994Z,93669.69
2022-08-14T10:57:20.213Z,93655.53
2022-08-14T11:00:14.064Z,93658.72
2022-08-14T11:03:01.936Z,93638.25
2022-08-14T11:05:55.641Z,93636.88
2022-08-14T11:08:34.002Z,93619.84
2022-08-14T11:11:05.428Z,93617.97
2022-08-14T11:13:32.274Z,93626.22
2022-08-14T11:16:01.472Z,93617.06
2022-08-14T11:18:35.801Z,93600.69
2022-08-14T11:21:06.955Z,93594.00
2022-08-14T11:23:40.965Z,93601.69
2022-08-14T11:26:11.943Z,93613.66
2022-08-14T11:28:47.950Z,93620.91
2022-08-14T11:31:19.876Z,93630.84
2022-08-14T11:33:56.852Z,93627.50
2022-08-14T11:37:02.059Z,93624.91
2022-08-14T11:39:33.475Z,93611.78
2022-08-14T11:42:55.673Z,93612.22
2022-08-14T11:45:00.168Z,93613.44
2022-08-14T11:47:34.822Z,93601.47
2022-08-14T11:50:33.678Z,93603.91
2022-08-14T11:53:04.511Z,93600.25
2022-08-14T11:55:38.542Z,93599.28
2022-08-14T11:58:11.326Z,93604.84
2022-08-14T12:00:49.392Z,93596.06
2022-08-14T12:03:19.807Z,93594.44
2022-08-14T12:06:05.376Z,93582.75
2022-08-14T12:08:38.598Z,93600.56
2022-08-14T12:11:07.520Z,93591.63
2022-08-14T12:13:36.589Z,93604.03
2022-08-14T12:16:11.286Z,93594.06
2022-08-14T12:18:49.714Z,93585.34
2022-08-14T12:21:19.324Z,93589.09
2022-08-14T12:24:03.113Z,93584.06
2022-08-14T12:26:39.428Z,93567.91
2022-08-14T12:29:12.971Z,93574.53
2022-08-14T12:31:44.980Z,93569.75
2022-08-14T12:34:20.740Z,93563.69
2022-08-14T12:36:49.926Z,93556.06
2022-08-14T12:39:22.989Z,93564.78
2022-08-14T12:42:06.232Z,93557.56
2022-08-14T12:44:39.179Z,93551.75
2022-08-14T12:47:17.758Z,93545.19
2022-08-14T12:49:53.453Z,93541.16
2022-08-14T12:53:06.460Z,93544.31
2022-08-14T12:56:17.580Z,93535.44
2022-08-14T12:58:47.338Z,93526.13
2022-08-14T13:01:30.902Z,93528.06
2022-08-14T13:04:10.165Z,93524.28
2022-08-14T13:06:38.205Z,93522.34
2022-08-14T13:09:10.995Z,93518.00
2022-08-14T13:11:47.088Z,93521.91
2022-08-14T13:14:33.785Z,93514.97
2022-08-14T13:17:04.203Z,93509.56
2022-08-14T13:19:33.006Z,93522.63
2022-08-14T13:22:09.644Z,93511.66
2022-08-14T13:24:39.580Z,93505.94
2022-08-14T13:27:06.800Z,93503.81
2022-08-14T13:29:39.583Z,93499.94
2022-08-14T13:32:09.303Z,93500.84
2022-08-14T13:34:36.747Z,93496.47
2022-08-14T13:37:07.201Z,93489.53
2022-08-14T13:39:36.205Z,93495.13
2022-08-14T13:42:13.531Z,93491.19
2022-08-14T13:44:43.048Z,93495.72
2022-08-14T13:47:11.251Z,93481.00
2022-08-14T13:49:40.280Z,93480.69
2022-08-14T13:52:51.865Z,93475.75
2022-08-14T13:55:15.410Z,93473.94
2022-08-14T13:57:49.331Z,93472.59
2022-08-14T14:00:21.580Z,93472.69
2022-08-14T14:02:57.965Z,93462.47
2022-08-14T14:05:26.008Z,93457.81
2022-08-14T14:08:18.916Z,93460.56
2022-08-14T14:11:01.198Z,93453.63
2022-08-14T14:13:27.960Z,93453.63
2022-08-14T14:16:02.785Z,93447.00
2022-08-14T14:18:34.883Z,93448.44
2022-08-14T14:21:02.911Z,93439.81
2022-08-14T14:23:31.249Z,93448.34
2022-08-14T14:25:59.744Z,93441.19
2022-08-14T14:28:31.918Z,93436.44
2022-08-14T14:31:06.060Z,93437.91
2022-08-14T14:33:46.731Z,93439.78
2022-08-14T14:36:20.813Z,93435.09
2022-08-14T14:38:52.548Z,93425.72
2022-08-14T14:41:22.415Z,93425.56
2022-08-14T14:43:51.573Z,93422.06
2022-08-14T14:46:20.396Z,93432.84
2022-08-14T14:48:54.757Z,93423.03
2022-08-14T14:51:22.196Z,93419.50
2022-08-14T14:53:48.953Z,93420.09
2022-08-14T14:56:51.277Z,93426.09
2022-08-14T14:59:02.318Z,93417.69
2022-08-14T15:01:29.000Z,93413.69
2022-08-14T15:03:56.420Z,93414.25
2022-08-14T15:06:28.917Z,93416.69
2022-08-14T15:08:59.573Z,93412.09
2022-08-14T15:11:30.412Z,93412.97
2022-08-14T15:13:58.743Z,93409.22
2022-08-14T15:16:27.964Z,93406.03
2022-08-14T15:18:54.589Z,93408.09
2022-08-14T15:21:21.515Z,93406.75
2022-08-14T15:23:51.603Z,93403.53
2022-08-14T15:26:23.873Z,93404.38
2022-08-14T15:29:05.762Z,93407.84
2022-08-14T15:31:36.570Z,93397.38
2022-08-14T15:34:43.194Z,93403.50
2022-08-14T15:36:58.074Z,93404.81
2022-08-14T15:39:24.749Z,93395.44
2022-08-14T15:41:57.169Z,93399.88
2022-08-14T15:44:28.012Z,93387.94
2022-08-14T15:47:00.166Z,93393.09
2022-08-14T15:49:34.501Z,93396.13
2022-08-14T15:52:04.635Z,93402.69
2022-08-14T15:54:32.432Z,93402.47
2022-08-14T15:57:01.507Z,93390.81
2022-08-14T15:59:49.581Z,93392.13
2022-08-14T16:02:16.738Z,93396.53
2022-08-14T16:04:45.881Z,93385.72
2022-08-14T16:07:17.595Z,93389.59
2022-08-14T16:09:57.399Z,93384.34
2022-08-14T16:12:51.386Z,93384.44
2022-08-14T16:15:21.152Z,93383.34
2022-08-14T16:17:48.574Z,93388.16
2022-08-14T16:20:42.008Z,93385.63
2022-08-14T16:23:10.403Z,93384.13
2022-08-14T16:25:42.257Z,93393.44
2022-08-14T16:28:09.928Z,93378.16
2022-08-14T16:30:36.841Z,93377.81
2022-08-14T16:33:06.031Z,93380.75
2022-08-14T16:35:41.888Z,93385.59
2022-08-14T16:38:48.255Z,93386.97
2022-08-14T16:41:23.325Z,93381.94
2022-08-14T16:44:01.725Z,93373.00
2022-08-14T16:46:43.954Z,93375.25
2022-08-14T16:49:13.263Z,93380.84
2022-08-14T16:51:41.117Z,93366.91
2022-08-14T16:54:34.632Z,93362.50
2022-08-14T16:57:22.564Z,93367.81
2022-08-14T16:59:55.759Z,93363.31
2022-08-14T17:02:58.785Z,93368.78
2022-08-14T17:05:28.982Z,93369.22
2022-08-14T17:08:28.471Z,93367.97
2022-08-14T17:10:51.581Z,93365.63
2022-08-14T17:13:20.459Z,93367.81
2022-08-14T17:16:04.810Z,93379.53
2022-08-14T17:18:46.846Z,93371.38
2022-08-14T17:21:31.800Z,93368.03
2022-08-14T17:24:58.318Z,93375.41
2022-08-14T17:26:55.057Z,93373.97
2022-08-14T17:29:29.213Z,93374.63
2022-08-14T17:32:03.247Z,93380.00
2022-08-14T17:34:52.861Z,93371.63
2022-08-14T17:37:28.647Z,93374.88
2022-08-14T17:40:19.031Z,93363.06
2022-08-14T17:42:46.346Z,93367.88
2022-08-14T17:45:42.794Z,93372.19
2022-08-14T17:49:14.970Z,93374.41
2022-08-14T17:51:23.764Z,93365.75
2022-08-14T17:54:02.546Z,93369.97
2022-08-14T17:56:32.527Z,93366.31
2022-08-14T17:59:05.302Z,93371.09
2022-08-14T18:01:36.585Z,93376.38
2022-08-14T18:04:24.530Z,93369.25
2022-08-14T18:06:57.965Z,93365.94
2022-08-14T18:09:35.165Z,93367.97
2022-08-14T18:12:03.648Z,93359.63
2022-08-14T18:14:49.068Z,93365.00
2022-08-14T18:17:23.592Z,93363.84
2022-08-14T18:19:52.485Z,93368.03
2022-08-14T18:22:32.031Z,93367.25
2022-08-14T18:25:19.273Z,93361.88
2022-08-14T18:27:51.537Z,93371.69
2022-08-14T18:30:33.233Z,93368.53
2022-08-14T18:33:22.395Z,93370.72
2022-08-14T18:35:58.529Z,93362.97
2022-08-14T18:38:59.957Z,93370.84
2022-08-14T18:41:36.372Z,93366.44
2022-08-14T18:44:04.674Z,93372.00
2022-08-14T18:47:10.176Z,93367.56
2022-08-14T18:49:57.772Z,93378.44
2022-08-14T18:52:32.058Z,93374.03
2022-08-14T18:55:20.770Z,93374.56
2022-08-14T18:58:27.629Z,93369.47
2022-08-14T19:00:56.018Z,93383.53
2022-08-14T19:03:34.415Z,93387.22
2022-08-14T19:06:08.850Z,93391.91
2022-08-14T19:08:47.568Z,93399.72
2022-08-14T19:11:32.619Z,93389.63
2022-08-14T19:14:00.416Z,93397.00
2022-08-14T19:16:35.000Z,93397.84
2022-08-14T19:19:06.825Z,93402.13
2022-08-14T19:22:01.896Z,93410.97
2022-08-14T19:24:44.050Z,93411.03
2022-08-14T19:27:24.606Z,93411.44
2022-08-14T19:30:22.439Z,93406.56
2022-08-14T19:32:53.174Z,93403.53
2022-08-14T19:35:24.849Z,93408.09
2022-08-14T19:38:32.070Z,93405.88
2022-08-14T19:41:01.396Z,93408.16
2022-08-14T19:43:55.133Z,93407.00
2022-08-14T19:46:39.237Z,93410.09
2022-08-14T19:49:14.147Z,93409.72
2022-08-14T19:51:50.428Z,93412.78
2022-08-14T19:54:17.239Z,93414.66
2022-08-14T19:56:45.955Z,93407.84
2022-08-14T19:59:18.766Z,93409.69
2022-08-14T20:01:50.692Z,93406.22
2022-08-14T20:04:45.933Z,93413.44
2022-08-14T20:07:27.528Z,93415.31
2022-08-14T20:11:03.335Z,93413.41
2022-08-14T20:13:33.406Z,93408.47
2022-08-14T20:16:11.989Z,93410.34
2022-08-14T20:18:50.746Z,93399.75
2022-08-14T20:21:19.980Z,93411.06
2022-08-14T20:23:47.984Z,93408.75
2022-08-14T20:26:31.595Z,93409.50
2022-08-14T20:29:05.238Z,93406.41
2022-08-14T20:31:37.403Z,93407.19
2022-08-14T20:34:06.471Z,93406.84
2022-08-14T20:36:38.769Z,93400.41
2022-08-14T20:39:15.202Z,93408.47
2022-08-14T20:41:51.013Z,93399.88
2022-08-14T20:44:41.453Z,93407.56
2022-08-14T20:47:15.005Z,93403.88
2022-08-14T20:49:41.754Z,93401.28
2022-08-14T20:52:19.055Z,93400.97
2022-08-14T20:54:50.515Z,93395.81
2022-08-14T20:57:18.762Z,93400.41
2022-08-14T20:59:53.420Z,93385.66
2022-08-14T21:02:38.553Z,93407.69
2022-08-14T21:05:19.746Z,93398.28
2022-08-14T21:07:50.992Z,93396.78
2022-08-14T21:10:36.227Z,93405.16
2022-08-14T21:13:25.555Z,93391.88
2022-08-14T21:15:57.344Z,93394.53
2022-08-14T21:18:35.450Z,93392.25
2022-08-14T21:21:19.042Z,93396.41
2022-08-14T21:23:55.396Z,93408.16
2022-08-14T21:26:33.269Z,93394.53
2022-08-14T21:29:14.349Z,93401.34
2022-08-14T21:31:42.684Z,93400.59
2022-08-14T21:34:30.990Z,93398.34
2022-08-14T21:37:07.882Z,93396.47
2022-08-14T21:39:36.229Z,93397.59
2022-08-14T21:42:05.800Z,93405.97
2022-08-14T21:44:42.911Z,93402.53
2022-08-14T21:47:10.035Z,93392.31
2022-08-14T21:49:38.910Z,93404.47
2022-08-14T21:52:49.029Z,93410.94
2022-08-14T21:55:09.183Z,93404.50
2022-08-14T21:58:04.073Z,93399.22
2022-08-14T22:00:31.563Z,93396.63
2022-08-14T22:03:03.659Z,93408.00
2022-08-14T22:05:30.712Z,93409.16
2022-08-14T22:07:58.373Z,93409.94
2022-08-14T22:10:25.998Z,93415.59
2022-08-14T22:13:00.217Z,93415.59
2022-08-14T22:15:28.692Z,93416.72
2022-08-14T22:17:57.102Z,93406.13
2022-08-14T22:20:28.704Z,93413.75
2022-08-14T22:22:57.214Z,93405.00
2022-08-14T22:25:33.535Z,93411.44
2022-08-14T22:28:05.667Z,93409.16
2022-08-14T22:30:33.842Z,93416.41
2022-08-14T22:33:00.820Z,93415.25
2022-08-14T22:35:29.194Z,93417.13
2022-08-14T22:38:36.027Z,93416.38
2022-08-14T22:41:12.548Z,93415.59
2022-08-14T22:43:34.916Z,93411.41
2022-08-14T22:46:06.198Z,93419.75
2022-08-14T22:48:43.142Z,93409.91
2022-08-14T22:51:16.071Z,93416.69
2022-08-14T22:53:48.306Z,93412.91
2022-08-14T22:56:20.524Z,93405.72
2022-08-14T22:58:53.976Z,93406.06
2022-08-14T23:01:46.142Z,93411.00
2022-08-14T23:04:34.769Z,93406.84
2022-08-14T23:07:22.149Z,93416.31
2022-08-14T23:09:56.914Z,93407.97
2022-08-14T23:12:29.880Z,93412.16
2022-08-14T23:15:00.424Z,93401.88
2022-08-14T23:17:38.774Z,93399.59
2022-08-14T23:20:19.223Z,93412.50
2022-08-14T23:22:48.662Z,93411.75
2022-08-14T23:25:20.075Z,93409.47
2022-08-14T23:28:06.924Z,93407.19
2022-08-14T23:30:55.357Z,93403.00
2022-08-14T23:33:22.125Z,93392.38
2022-08-14T23:35:58.960Z,93391.25
2022-08-14T23:38:31.074Z,93399.63
2022-08-14T23:41:01.015Z,93393.56
2022-08-14T23:43:31.315Z,93404.94
2022-08-14T23:45:58.947Z,93395.09
2022-08-14T23:48:28.141Z,93402.28
2022-08-14T23:50:55.624Z,93400.41
2022-08-14T23:53:47.686Z,93402.28
2022-08-14T23:56:31.822Z,93398.50
2022-08-14T23:59:01.111Z,93394.34
